539  
UXUS97 KREV 251331  
SRGREV  
 
SOARING FORECAST  
NATIONAL WEATHER SERVICE - RENO NV  
700 AM PDT MON MAR 25 2019  
 
THIS SOARING FORECAST IS FOR THE EASTERN SIERRA AND WESTERN NEVADA  
WITH SPECIFIC INDICES FOR THE GREATER RENO AREA.  
 
THIS FORECAST IS PREPARED DAILY BY 700 AM AND IS NOT UPDATED.  
 
FOR CURRENT FLIGHT CONDITIONS...FORECASTS...AND ADVISORIES...ACCESS  
YOUR LOCAL BRIEFING OUTLET OR FLIGHT SERVICE STATION.  
 
*******************************************************************  
FORECASTED LOCAL INDICES FOR RENO: TODAY YESTERDAY  
FORECASTED MAX TEMP AT RENO (DEG F)..... 64 60  
FORECASTED TRIGGER TEMPERATURE (DEG F).. 54 41  
EXCEEDED YESTERDAY BY 1055 AM PDT  
FORECASTED MAXIMUM ALTITUDE (FT MSL).... 13400 14800  
FORECASTED SOARING INDEX (FPM).......... 672 744  
FORECASTED K-INDEX.........VALID 18Z.... 4 3  
FORECASTED K-INDEX.........VALID 00Z.... 15 11  
FORECASTED LIFTED INDEX....VALID 18Z.... 8 4  
FORECASTED LIFTED INDEX....VALID 00Z.... 5 3  
 
AFTERNOON WINDS ALOFT FORECAST  
MSL (FT) WIND/TEMP  
9000 2134/-02  
10000 2139/-03  
12000 2148/-06  
14000 2149/-10  
16000 2151/-14  
18000 2256/-18  
24000 2264/-31  
30000 2376/-46  
34000 2382/-55  
39000 2484/-67  
 
SLIDE MOUNTAIN DATA:  
DATE TIME TEMP DEWPT RH WIND (MPH)  
(F) (F) | DIR SPEED GUST  
2019-03-25 05:20 26 1 19 | 266 29 40  
2019-03-25 05:00 26 2 20 | 262 29 37  
2019-03-25 04:50 26 2 20 | 269 31 48  
2019-03-25 04:30 26 2 21 | 269 29 40  
 
SIERRA CREST 8700 FT DATA:  
DATE TIME TEMP RH WIND  
DIR SPEED GUST  
2019-03-25 0600 29 12 231 53 75  
2019-03-25 0545 29 14 230 51 64  
2019-03-25 0530 29 12 226 47 64  
2019-03-25 0515 29 12 226 45 60  
 
RENO TAF FORECAST:  
KRNO 251136Z 2512/2612 VRB05KT P6SM SKC  
FM251600 18011G23KT P6SM SCT220 WS020/22035KT  
FM252000 19020G30KT P6SM BKN220 WS020/22035KT  
FM260100 21014G25KT P6SM SCT180 BKN200  
FM260600 20010KT P6SM SCT100  
FM261000 23008G15KT P6SM VCSH OVC050  
 
CARSON CITY TAF FORECAST:  
KCXP 251136Z 2512/2612 VRB04KT P6SM SKC  
FM251700 18009G19KT P6SM BKN120 WS020/22035KT  
FM252000 22015G28KT P6SM SCT180 BKN210  
FM260200 22009G18KT P6SM SCT180 BKN210  
FM260600 21008KT P6SM SCT090  
FM261000 22007KT P6SM VCSH OVC050  
 
OUTLOOK FOR THE RENO-CARSON CITY-MINDEN AREA:   
TUESDAY
 
MOSTLY CLOUDY WITH A CHANCE OF RAIN AND SNOW. SNOW  
LEVEL 5500 TO 6000 FEET. HIGHS 55 TO 60. SOUTHWEST WINDS AROUND  
10 MPH INCREASING TO 15 TO 20 MPH WITH GUSTS UP TO 35 MPH IN THE  
AFTERNOON.  
 
SUNRISE AND SUNSET  
MARCH 25 2019.........SUNRISE 655 AM PDT SUNSET 716 PM PDT  
MARCH 26 2019.........SUNRISE 653 AM PDT SUNSET 717 PM PDT  
 
CLICK HERE TO GO TO PREVIOUS BULLETINS.

The Nexlab NV Page
The Nexlab CA Page Main Text Page